首页
METAR-TAF:

METAR-TAF

机场 :

貝爾格勒尼古拉·特斯拉機場

贝尔格莱德, 塞尔维亚

纬度: 44-49N, 经度: 020-17E, 海拔: 96米

当前天气观测

该预报发布于32分钟前的10:00 UTC
风速3节,风向西转西南,在西南西转西北之间变化
温度 21°C
湿度 56%
气压 1018 hPa
能见度10公里或以上
1500米以下无云,无积雨云

METAR: LYBE 191000Z 25003KT 220V300 CAVOK 21/12 Q1018 NOSIG

时间: 12:32 (10:32 UTC)

预报

该预报发布于5小时和32分钟前的05:00 UTC
预报有效从19日的 06点(UTC)到 20日的 06点(UTC)
风速5节,风向南转西南
能見度: 4000
轻雾
短暂存在
从 19日的 06点(UTC)到 19日的 07点(UTC)
能見度: 2000
成为
从 19日的 07点(UTC)到 19日的 08点(UTC)
能见度10公里或以上
1500米以下无云,无积雨云
短暂存在
从 20日的 03点(UTC)到 20日的 06点(UTC)
能見度: 3000
轻雾

TAF: LYBE 190500Z 1906/2006 20005KT 4000 BR NSC TX26/1913Z TN11/2004Z TEMPO 1906/1907 2000 BECMG 1907/1908 CAVOK TEMPO 2003/2006 3000 BR

超过4000个机场的气象观测和天气预报(METAR&TAF报告)。

可查询的气象台以黄色和红色小点在地图上表示。

将鼠标移到小点上方,可查看气象台名称。

然后点击查看天气观测和预报。

如需切换地图:点击带黑十字的绿色按钮放大地图;点击带横线的绿色按钮缩小地图;或者点击绿色箭头查看邻近地区的地图。


METAR-TAF: